BYU2
, Provo
Last Weather Update:02/23/2012 6:00:00 PM
Date
ETo
ETc
Rain
Irrigation
Req
Temp
Max
Temp
Min
Temp
Avg
Avg RH
Avg Wind
Avg Solar
inches
inches
incehs
inches
F
F
F
%
%
watts/m2
01/01/2012 0.03" 0.00" 0.00" 0.00" 44.1° 19.4° 29.5° 54.3% 1.3 MPH 107.2w/m2
01/02/2012 0.04" 0.00" 0.00" 0.00" 56.2° 22.8° 34.7° 53.8% 1.3 MPH 104.5w/m2
01/03/2012 0.05" 0.00" 0.00" 0.00" 56.2° 30.6° 40.5° 49.3% 1.9 MPH 103.8w/m2
01/04/2012 0.04" 0.00" 0.00" 0.00" 51.9° 25.5° 35.6° 58.0% 1.3 MPH 105.2w/m2
01/05/2012 0.04" 0.00" 0.00" 0.00" 55.8° 26.1° 37.3° 56.3% 1.4 MPH 103.4w/m2
01/06/2012 0.04" 0.00" 0.00" 0.00" 50.5° 25.6° 36.0° 61.9% 1.6 MPH 104.1w/m2
01/07/2012 0.01" 0.00" 0.09" -0.09" 37.2° 28.5° 32.6° 90.3% 3.1 MPH 26.1w/m2
01/08/2012 0.02" 0.00" 0.00" 0.00" 32.8° 23.8° 27.9° 83.2% 2.2 MPH 64.9w/m2
01/09/2012 0.03" 0.00" 0.00" 0.00" 39.5° 20.8° 28.0° 81.4% 0.9 MPH 99.8w/m2
01/10/2012 0.03" 0.00" 0.00" 0.00" 42.9° 19.6° 30.5° 81.5% 1.3 MPH 97.2w/m2
01/11/2012 0.03" 0.00" 0.00" 0.00" 36.6° 21.8° 28.7° 72.7% 2.5 MPH 85.3w/m2
01/12/2012 0.03" 0.00" 0.00" 0.00" 35.7° 15.7° 24.2° 63.2% 1.1 MPH 112.8w/m2
01/13/2012 0.04" 0.00" 0.00" 0.00" 40.6° 16.4° 26.8° 55.1% 1.1 MPH 113.4w/m2
01/14/2012 0.05" 0.00" 0.00" 0.00" 59.3° 20.1° 35.7° 43.8% 1.2 MPH 115.2w/m2
01/15/2012 0.07" 0.00" 0.00" 0.00" 53.9° 29.3° 43.0° 26.7% 4.3 MPH 68.0w/m2
01/16/2012 0.04" 0.00" 0.00" 0.00" 47.0° 17.8° 29.3° 48.4% 5.1 MPH 54.3w/m2
01/17/2012 0.04" 0.00" 0.00" 0.00" 35.7° 10.0° 23.2° 52.6% 1.6 MPH 119.1w/m2
01/18/2012 0.04" 0.00" 0.15" -0.15" 46.0° 29.0° 39.0° 50.9% 3.5 MPH 43.2w/m2
01/19/2012 0.03" 0.00" 0.00" 0.00" 55.0° 36.2° 45.0° 63.9% 2.2 MPH 16.0w/m2
01/20/2012 0.05" 0.00" 0.00" 0.00" 54.4° 38.1° 47.0° 56.7% 2.1 MPH 82.8w/m2
01/21/2012 0.01" 0.00" 0.94" -0.94" 53.6° 32.4° 40.8° 83.4% 3.4 MPH 7.7w/m2
01/22/2012 0.04" 0.00" 0.16" -0.16" 40.5° 28.8° 33.2° 66.1% 0.6 MPH 116.1w/m2
01/23/2012 0.02" 0.00" 0.08" -0.08" 40.8° 28.8° 33.6° 82.0% 1.2 MPH 33.6w/m2
01/24/2012 0.02" 0.00" 0.19" -0.19" 37.5° 27.2° 32.2° 90.8% 1.2 MPH 70.3w/m2
01/25/2012 0.04" 0.00" 0.09" -0.09" 45.1° 25.0° 33.8° 75.9% 0.8 MPH 129.9w/m2
01/26/2012 0.01" 0.00" 0.11" -0.11" 44.2° 29.8° 36.9° 86.0% 1.3 MPH 32.2w/m2
01/27/2012 0.05" 0.00" 0.00" 0.00" 39.7° 25.8° 33.4° 66.3% 3.5 MPH 139.5w/m2
01/28/2012 0.04" 0.00" 0.00" 0.00" 39.9° 18.0° 27.5° 71.3% 1.1 MPH 135.0w/m2
01/29/2012 0.04" 0.00" 0.00" 0.00" 42.4° 21.5° 30.4° 63.4% 1.1 MPH 114.3w/m2
01/30/2012 0.04" 0.00" 0.00" 0.00" 48.3° 25.0° 34.4° 66.4% 1.4 MPH 80.3w/m2
01/31/2012 0.04" 0.00" 0.00" 0.00" 45.5° 23.9° 33.2° 75.4% 1.4 MPH 122.0w/m2
Totals: 1.09" 0.00" 1.81" -1.81" 59.3° 10.0° 33.7° 65.5% 1.9 MPH 87.3w/m2